Airfield :
LOGIN :

Register | Disclaimer

   EN    FR    IT 

 










Legend :    VFR   Marginal VFR   IFR   Intensive IFR   Very Intensive IFR
Visi :
Ceiling :
>= 8 km
>= 3000ft
5 to 8 km
1000 to 3000 ft
1500m to 5 km
500 to 1000 ft
800 to 1500m
200 to 500 ft
< 800m
< 200 ft
Symbols :   Thunderstorms  Fog  Heavy snow  Heavy precipitations  Wind > 20 kt
SIGMETs :     Misc.  Thunderstorms  Icing  Turbulence  Mountain Waves  Volcanic Ashes







- Airport Elevation : 412 ft
- IATA code : ORE
- Download approach charts


LFOJ - Orleans

CURRENT METAR :
  • 170530Z AUTO 22011KT CAVOK 17/15 Q1018 BECMG BKN013

EXPIRED METARs :
  • 170500Z AUTO 22011KT CAVOK 16/15 Q1018 NOSIG
  • 170430Z AUTO 20007KT CAVOK 16/14 Q1018 NOSIG
  • 170400Z AUTO 21006KT CAVOK 17/14 Q1018 NOSIG
  • 170330Z AUTO 21005KT CAVOK 17/14 Q1018 NOSIG
  • 170300Z AUTO 21006KT CAVOK 17/14 Q1018

TAF AMD TAF LFOJ
Valid from the 17 at 04:00 until the 18 at 03:00 UTC


170300Z 1704/1803 21006KT CAVOK
BECMG 1707/1709 BKN013
PROB30
TEMPO 1710/1718 21015G25KT 5000 -RA SCT006 BKN010
PROB40
TEMPO 1715/1720 4000 -SHRA SCT008 BKN020TCU
BECMG 1801/1803 3000 RA BKN006 BKN015
No reported NOTAMs for that airfield.



MET'MAP, your aeronautical weather chart ! - Copyright ORBIFLY December 2007 - Disclaimer

ORBIFLY MET'MAP TEAM :

Programming & Development : Alexandra Zaïnal
Concept & Development : Baudouin d'Aumeries
Co-Development & Prog : Marc-Olivier Méhu
Technical & hardware support : Manuel Goepfert

Contact : metmap@orbifly.com




SOURCES & CREDITS :

   NOAA